메인 페이지
METAR-TAF:

METAR-TAF

공항 :

에드먼턴, 앨버타, 캐나다

위도: 53-18N, 경도: 113-35W, 고도: 715m

현재 날씨관측

예보는 28분 전, 10:09시(UTC)에 발표되었습니다.
서북서6kt
온도 -28°C
습도 62%
기압 1031 hPa
시정: 32.2km
고도 5500ft 상공 구름 보통

METAR: CYEG 181009Z 29006KT 20SM SCT055 M28/M33 A3044 RMK SC3 SLP397

시각: 03:37 (10:37 UTC)

예보

예보는 1 시간 59분 전, 08:38시(UTC)에 발표되었습니다.
예보 대상 시간: 18일 09시부터 19일 06시까지 (UTC)
서북서6kt
시정: 10km
고도 6000ft 상공 구름 조금
고도 24000ft 상공 구름 조금
일시적
18일 09시부터 18일 14시까지 (UTC)
고도 6000ft 상공 구름 많음
18일 1400시부터 (UTC)
서북서6kt
시정: 10km
고도 6000ft 상공 구름 조금
고도 24000ft 상공 구름 보통
일시적
18일 14시부터 18일 19시까지 (UTC)
시정: 6.4km
빙정
18일 1900시부터 (UTC)
서남서5kt
시정: 10km
고도 12000ft 상공 구름 보통
고도 24000ft 상공 구름 많음
전환 중
18일 19시부터 18일 21시까지 (UTC)
남동5kt
19일 0000시부터 (UTC)
남동10kt
시정: 10km
고도 8000ft 상공 구름 많음
고도 18000ft 상공 구름 많음
일시적
19일 00시부터 19일 06시까지 (UTC)
시정: 9.7km
고도 6000ft 상공 구름 많음
고도 18000ft 상공 구름 많음
약한눈

TAF: CYEG 180838Z 1809/1906 29006KT P6SM FEW060 FEW240 TEMPO 1809/1814 BKN060 FM181400 29006KT P6SM FEW060 SCT240 TEMPO 1814/1819 4SM IC FM181900 24005KT P6SM SCT120 BKN240 BECMG 1819/1821 14005KT FM190000 14010KT P6SM BKN080 BKN180 TEMPO 1900/1906 6SM -SN BKN060 BKN180 RMK NXT FCST BY 181200Z

4,000개 이상의 공항 관측 자료 및 예보 (METAR 및 TAF 보고).

지도상에서 검색 가능한 기상관측소가 노란 점과 빨간 점으로 표시되어 있습니다.

기상관측소 명을 보려면 표시 위로 마우스를 이동하세요.

날씨 관측과 예보를 보려면 클릭하세요.

지도 변경 : 확대하려면 엑스 표시가 있는 녹색 버튼, 축소하려면 빼기 표시가 있는 녹색 버튼, 다음 페이지의 지도를 보려면 녹색 화살표를 클릭하세요.


METAR-TAF: